createdAt,value
2022-07-27T00:00:00.415Z,100297.94
2022-07-27T00:00:31.820Z,100288.91
2022-07-27T00:01:03.492Z,100291.66
2022-07-27T00:01:35.000Z,100297.13
2022-07-27T00:02:06.386Z,100297.13
2022-07-27T00:02:37.881Z,100295.50
2022-07-27T00:03:09.287Z,100291.66
2022-07-27T00:03:40.713Z,100301.78
2022-07-27T00:04:12.162Z,100288.09
2022-07-27T00:04:44.555Z,100288.09
2022-07-27T00:05:15.940Z,100290.84
2022-07-27T00:05:48.663Z,100296.31
2022-07-27T00:06:20.059Z,100294.38
2022-07-27T00:06:51.429Z,100290.84
2022-07-27T00:07:22.764Z,100286.19
2022-07-27T00:07:54.151Z,100299.03
2022-07-27T00:08:25.589Z,100285.38
2022-07-27T00:08:57.013Z,100288.91
2022-07-27T00:09:28.389Z,100284.25
2022-07-27T00:09:59.785Z,100285.38
2022-07-27T00:10:31.198Z,100284.25
2022-07-27T00:11:02.734Z,100282.63
2022-07-27T00:11:34.967Z,100285.38
2022-07-27T00:12:06.289Z,100286.19
2022-07-27T00:12:37.653Z,100288.91
2022-07-27T00:13:09.145Z,100287.28
2022-07-27T00:13:40.481Z,100288.09
2022-07-27T00:14:11.860Z,100283.44
2022-07-27T00:14:43.257Z,100290.03
2022-07-27T00:15:14.715Z,100288.09
2022-07-27T00:15:46.165Z,100282.63
2022-07-27T00:16:17.703Z,100281.81
2022-07-27T00:16:49.309Z,100281.00
2022-07-27T00:17:20.939Z,100284.56
2022-07-27T00:17:52.409Z,100285.38
2022-07-27T00:18:23.775Z,100286.19
2022-07-27T00:18:55.177Z,100279.06
2022-07-27T00:19:26.649Z,100281.00
2022-07-27T00:19:58.055Z,100281.81
2022-07-27T00:20:29.447Z,100284.56
2022-07-27T00:21:00.834Z,100281.81
2022-07-27T00:21:32.264Z,100281.81
2022-07-27T00:22:03.623Z,100279.06
2022-07-27T00:22:34.950Z,100284.56
2022-07-27T00:23:06.315Z,100285.38
2022-07-27T00:23:37.748Z,100280.19
2022-07-27T00:24:09.155Z,100283.72
2022-07-27T00:24:40.546Z,100284.56
2022-07-27T00:25:11.983Z,100285.66
2022-07-27T00:25:47.721Z,100287.28
2022-07-27T00:26:19.118Z,100286.47
2022-07-27T00:26:50.715Z,100288.41
2022-07-27T00:27:22.087Z,100285.66
2022-07-27T00:27:53.449Z,100288.41
2022-07-27T00:28:24.921Z,100285.66
2022-07-27T00:28:56.301Z,100296.59
2022-07-27T00:29:27.829Z,100294.69
2022-07-27T00:29:59.326Z,100296.59
2022-07-27T00:30:30.778Z,100288.41
2022-07-27T00:31:02.249Z,100293.88
2022-07-27T00:31:33.875Z,100296.59
2022-07-27T00:32:07.437Z,100296.59
2022-07-27T00:32:42.214Z,100300.97
2022-07-27T00:33:17.013Z,100295.78
2022-07-27T00:33:48.991Z,100302.91
2022-07-27T00:34:20.478Z,100300.97
2022-07-27T00:34:51.865Z,100302.91
2022-07-27T00:35:23.322Z,100295.78
2022-07-27T00:35:54.755Z,100299.34
2022-07-27T00:37:16.848Z,100293.88
2022-07-27T00:38:06.119Z,100298.53
2022-07-27T00:38:52.991Z,100298.53
2022-07-27T00:39:38.057Z,100294.69
2022-07-27T00:40:21.816Z,100294.97
2022-07-27T00:41:11.694Z,100301.28
2022-07-27T00:41:59.334Z,100294.16
2022-07-27T00:42:50.757Z,100295.78
2022-07-27T00:43:38.356Z,100300.44
2022-07-27T00:44:25.784Z,100294.97
2022-07-27T00:45:16.882Z,100299.63
2022-07-27T00:46:11.241Z,100294.97
2022-07-27T00:47:00.893Z,100298.53
2022-07-27T00:47:54.593Z,100293.06
2022-07-27T00:48:40.816Z,100292.25
2022-07-27T00:49:30.133Z,100295.78
2022-07-27T00:50:19.076Z,100286.78
2022-07-27T00:51:06.381Z,100293.88
2022-07-27T00:51:56.219Z,100293.06
2022-07-27T00:52:46.747Z,100287.88
2022-07-27T00:53:38.645Z,100288.69
2022-07-27T00:54:29.105Z,100294.16
2022-07-27T00:55:19.989Z,100292.25
2022-07-27T00:56:06.493Z,100292.25
2022-07-27T00:56:49.769Z,100285.97
2022-07-27T00:57:59.395Z,100295.28
2022-07-27T00:58:43.776Z,100298.81
2022-07-27T00:59:32.098Z,100294.47
2022-07-27T01:00:19.915Z,100298.00
2022-07-27T01:01:04.954Z,100284.31
2022-07-27T01:01:47.253Z,100291.72
2022-07-27T01:02:34.250Z,100292.53
2022-07-27T01:03:29.463Z,100297.19
2022-07-27T01:04:16.582Z,100288.19
2022-07-27T01:05:02.660Z,100291.72
2022-07-27T01:05:48.563Z,100291.72
2022-07-27T01:06:35.967Z,100290.09
2022-07-27T01:07:26.655Z,100291.72
2022-07-27T01:08:14.157Z,100288.19
2022-07-27T01:09:00.318Z,100289.81
2022-07-27T01:09:46.037Z,100296.38
2022-07-27T01:10:33.174Z,100290.91
2022-07-27T01:11:19.474Z,100291.72
2022-07-27T01:12:08.625Z,100285.44
2022-07-27T01:12:54.079Z,100292.84
2022-07-27T01:13:41.127Z,100291.72
2022-07-27T01:14:29.047Z,100290.09
2022-07-27T01:15:20.445Z,100286.56
2022-07-27T01:16:08.512Z,100287.38
2022-07-27T01:16:58.212Z,100281.88
2022-07-27T01:17:47.298Z,100292.84
2022-07-27T01:18:40.230Z,100288.19
2022-07-27T01:19:25.549Z,100286.25
2022-07-27T01:20:14.067Z,100287.38
2022-07-27T01:21:08.764Z,100281.88
2022-07-27T01:21:56.659Z,100287.38
2022-07-27T01:22:47.065Z,100290.09
2022-07-27T01:23:39.370Z,100278.34
2022-07-27T01:24:26.586Z,100278.34
2022-07-27T01:25:15.872Z,100287.38
2022-07-27T01:26:10.066Z,100285.72
2022-07-27T01:26:57.631Z,100291.22
2022-07-27T01:27:46.203Z,100289.28
2022-07-27T01:28:37.356Z,100283.81
2022-07-27T01:29:25.105Z,100287.66
2022-07-27T01:30:14.203Z,100285.72
2022-07-27T01:31:05.054Z,100283.00
2022-07-27T01:32:34.859Z,100283.00
2022-07-27T01:33:24.962Z,100283.00
2022-07-27T01:34:15.089Z,100284.94
2022-07-27T01:35:06.503Z,100283.00
2022-07-27T01:35:51.092Z,100276.72
2022-07-27T01:36:38.369Z,100279.44
2022-07-27T01:37:23.930Z,100275.91
2022-07-27T01:38:14.129Z,100284.94
2022-07-27T01:38:59.832Z,100284.09
2022-07-27T01:39:44.348Z,100278.63
2022-07-27T01:40:34.715Z,100288.47
2022-07-27T01:41:17.667Z,100277.53
2022-07-27T01:42:04.007Z,100281.06
2022-07-27T01:42:49.307Z,100277.53
2022-07-27T01:43:35.054Z,100276.72
2022-07-27T01:44:22.204Z,100276.72
2022-07-27T01:45:08.155Z,100280.25
2022-07-27T01:45:55.190Z,100278.34
2022-07-27T01:46:37.993Z,100278.34
2022-07-27T01:47:25.074Z,100275.91
2022-07-27T01:48:13.817Z,100272.06
2022-07-27T01:49:01.357Z,100270.13
2022-07-27T01:49:54.229Z,100273.16
2022-07-27T01:50:45.448Z,100277.53
2022-07-27T01:51:29.477Z,100274.78
2022-07-27T01:52:18.618Z,100274.78
2022-07-27T01:53:06.114Z,100276.72
2022-07-27T01:53:57.920Z,100271.25
2022-07-27T01:54:45.377Z,100288.47
2022-07-27T01:55:38.440Z,100280.25
2022-07-27T01:56:23.699Z,100273.97
2022-07-27T01:57:09.174Z,100276.72
2022-07-27T01:57:56.330Z,100284.94
2022-07-27T01:58:41.950Z,100280.25
2022-07-27T01:59:26.523Z,100281.38
2022-07-27T02:00:12.295Z,100280.25
2022-07-27T02:00:57.939Z,100277.53
2022-07-27T02:01:47.364Z,100286.56
2022-07-27T02:02:29.089Z,100274.78
2022-07-27T02:03:16.102Z,100273.16
2022-07-27T02:04:01.540Z,100275.91
2022-07-27T02:04:47.054Z,100278.34
2022-07-27T02:05:35.872Z,100274.78
2022-07-27T02:06:24.010Z,100272.06
2022-07-27T02:07:11.501Z,100280.25
2022-07-27T02:07:56.387Z,100280.25
2022-07-27T02:08:45.862Z,100273.97
2022-07-27T02:09:35.251Z,100284.94
2022-07-27T02:10:24.953Z,100273.97
2022-07-27T02:11:15.644Z,100286.84
2022-07-27T02:12:04.750Z,100286.84
2022-07-27T02:12:53.329Z,100277.81
2022-07-27T02:13:40.745Z,100287.66
2022-07-27T02:14:29.916Z,100286.84
2022-07-27T02:15:20.598Z,100275.09
2022-07-27T02:16:16.784Z,100280.56
2022-07-27T02:17:02.674Z,100282.47
2022-07-27T02:17:50.109Z,100275.09
2022-07-27T02:18:36.953Z,100278.63
2022-07-27T02:19:21.119Z,100286.84
2022-07-27T02:20:07.851Z,100282.47
2022-07-27T02:20:53.386Z,100286.84
2022-07-27T02:21:38.961Z,100284.09
2022-07-27T02:22:25.849Z,100286.84
2022-07-27T02:23:10.977Z,100284.94
2022-07-27T02:23:55.445Z,100286.03
2022-07-27T02:24:41.393Z,100284.09
2022-07-27T02:25:26.371Z,100291.50
2022-07-27T02:26:12.339Z,100285.22
2022-07-27T02:27:01.940Z,100283.28
2022-07-27T02:27:51.399Z,100285.22
2022-07-27T02:28:42.076Z,100285.22
2022-07-27T02:29:29.251Z,100272.34
2022-07-27T02:30:17.762Z,100277.00
2022-07-27T02:31:00.916Z,100271.53
2022-07-27T02:31:48.842Z,100274.28
2022-07-27T02:32:35.414Z,100266.06
2022-07-27T02:33:23.353Z,100274.28
2022-07-27T02:34:10.134Z,100282.47
2022-07-27T02:34:54.773Z,100270.72
2022-07-27T02:35:41.563Z,100283.59
2022-07-27T02:36:31.072Z,100282.47
2022-07-27T02:37:21.348Z,100276.19
2022-07-27T02:38:10.038Z,100286.31
2022-07-27T02:39:01.338Z,100281.66
2022-07-27T02:39:45.405Z,100291.81
2022-07-27T02:40:31.641Z,100283.59
2022-07-27T02:41:16.879Z,100291.81
2022-07-27T02:42:03.619Z,100291.00
2022-07-27T02:42:47.699Z,100289.88
2022-07-27T02:43:34.293Z,100286.31
2022-07-27T02:44:21.142Z,100294.53
2022-07-27T02:45:08.647Z,100287.13
2022-07-27T02:45:57.736Z,100292.63
2022-07-27T02:46:44.229Z,100290.69
2022-07-27T02:47:30.180Z,100281.97
2022-07-27T02:48:18.576Z,100285.50
2022-07-27T02:49:07.039Z,100280.84
2022-07-27T02:49:54.566Z,100275.38
2022-07-27T02:50:43.275Z,100275.38
2022-07-27T02:51:30.769Z,100287.13
2022-07-27T02:52:21.216Z,100281.66
2022-07-27T02:53:05.436Z,100285.22
2022-07-27T02:53:52.734Z,100282.78
2022-07-27T02:54:39.703Z,100283.59
2022-07-27T02:55:25.588Z,100286.31
2022-07-27T02:56:15.452Z,100292.63
2022-07-27T02:57:05.012Z,100281.97
2022-07-27T02:57:55.900Z,100287.44
2022-07-27T02:58:40.273Z,100290.19
2022-07-27T02:59:26.408Z,100287.44
2022-07-27T03:00:11.364Z,100287.13
2022-07-27T03:00:58.754Z,100287.44
2022-07-27T03:01:44.012Z,100291.00
2022-07-27T03:02:32.613Z,100283.88
2022-07-27T03:03:15.297Z,100287.44
2022-07-27T03:04:03.304Z,100281.16
2022-07-27T03:04:53.325Z,100281.16
2022-07-27T03:05:43.468Z,100281.16
2022-07-27T03:06:30.115Z,100287.44
2022-07-27T03:07:15.599Z,100281.97
2022-07-27T03:08:01.280Z,100281.97
2022-07-27T03:08:49.458Z,100281.97
2022-07-27T03:09:34.329Z,100281.97
2022-07-27T03:10:20.925Z,100287.44
2022-07-27T03:11:06.889Z,100287.44
2022-07-27T03:11:52.763Z,100282.78
2022-07-27T03:12:37.786Z,100291.81
2022-07-27T03:13:23.520Z,100280.34
2022-07-27T03:14:07.216Z,100285.81
2022-07-27T03:14:53.919Z,100294.84
2022-07-27T03:15:43.961Z,100289.38
2022-07-27T03:16:32.846Z,100294.03
2022-07-27T03:17:19.395Z,100294.84
2022-07-27T03:18:04.189Z,100291.28
2022-07-27T03:18:53.142Z,100292.91
2022-07-27T03:19:36.917Z,100287.44
2022-07-27T03:20:22.060Z,100292.09
2022-07-27T03:21:11.353Z,100292.09
2022-07-27T03:21:56.150Z,100290.47
2022-07-27T03:22:41.837Z,100289.66
2022-07-27T03:23:29.916Z,100290.47
2022-07-27T03:24:14.514Z,100297.56
2022-07-27T03:25:01.578Z,100287.72
2022-07-27T03:25:45.702Z,100289.38
2022-07-27T03:26:31.471Z,100295.13
2022-07-27T03:27:17.704Z,100285.81
2022-07-27T03:28:06.718Z,100287.72
2022-07-27T03:28:55.439Z,100291.28
2022-07-27T03:29:41.437Z,100292.09
2022-07-27T03:30:28.543Z,100291.28
2022-07-27T03:31:14.629Z,100287.72
2022-07-27T03:32:01.814Z,100295.13
2022-07-27T03:32:50.276Z,100289.66
2022-07-27T03:33:37.421Z,100295.13
2022-07-27T03:34:29.329Z,100296.75
2022-07-27T03:35:17.441Z,100290.47
2022-07-27T03:36:02.266Z,100295.13
2022-07-27T03:36:48.015Z,100290.47
2022-07-27T03:37:34.393Z,100289.66
2022-07-27T03:38:16.168Z,100290.47
2022-07-27T03:39:06.107Z,100286.91
2022-07-27T03:39:50.415Z,100291.28
2022-07-27T03:40:35.486Z,100289.66
2022-07-27T03:41:18.877Z,100293.22
2022-07-27T03:42:07.480Z,100289.66
2022-07-27T03:42:54.305Z,100289.66
2022-07-27T03:43:44.427Z,100298.69
2022-07-27T03:44:35.368Z,100295.94
2022-07-27T03:45:22.991Z,100290.47
2022-07-27T03:46:09.810Z,100293.22
2022-07-27T03:46:59.390Z,100292.41
2022-07-27T03:47:44.140Z,100295.13
2022-07-27T03:48:34.047Z,100289.66
2022-07-27T03:49:23.036Z,100293.22
2022-07-27T03:50:12.653Z,100291.59
2022-07-27T03:51:02.253Z,100290.75
2022-07-27T03:51:48.466Z,100295.13
2022-07-27T03:52:30.816Z,100299.78
2022-07-27T03:53:16.712Z,100295.13
2022-07-27T03:54:01.826Z,100292.41
2022-07-27T03:54:49.923Z,100297.06
2022-07-27T03:55:36.718Z,100295.94
2022-07-27T03:56:21.332Z,100298.69
2022-07-27T03:57:07.039Z,100291.59
2022-07-27T03:57:54.370Z,100295.13
2022-07-27T03:58:40.320Z,100298.69
2022-07-27T03:59:27.164Z,100295.13
2022-07-27T04:00:12.169Z,100287.22
2022-07-27T04:01:01.749Z,100290.47
2022-07-27T04:01:52.450Z,100289.66
2022-07-27T04:02:35.880Z,100288.03
2022-07-27T04:03:21.371Z,100285.00
2022-07-27T04:04:07.430Z,100289.66
2022-07-27T04:04:52.954Z,100294.31
2022-07-27T04:05:38.989Z,100292.41
2022-07-27T04:06:23.449Z,100295.13
2022-07-27T04:07:08.828Z,100291.59
2022-07-27T04:07:54.905Z,100291.59
2022-07-27T04:08:38.607Z,100286.09
2022-07-27T04:09:23.783Z,100289.97
2022-07-27T04:10:10.211Z,100292.69
2022-07-27T04:10:55.541Z,100294.31
2022-07-27T04:11:43.590Z,100298.97
2022-07-27T04:12:36.501Z,100299.78
2022-07-27T04:13:19.910Z,100299.78
2022-07-27T04:14:04.214Z,100301.72
2022-07-27T04:14:51.488Z,100299.78
2022-07-27T04:15:37.150Z,100304.44
2022-07-27T04:16:22.334Z,100308.00
2022-07-27T04:17:08.536Z,100302.53
2022-07-27T04:17:58.329Z,100305.25
2022-07-27T04:18:41.615Z,100305.25
2022-07-27T04:19:27.222Z,100305.25
2022-07-27T04:20:18.008Z,100306.06
2022-07-27T04:21:05.787Z,100311.56
2022-07-27T04:21:56.346Z,100306.06
2022-07-27T04:22:46.318Z,100309.94
2022-07-27T04:23:32.651Z,100303.34
2022-07-27T04:24:20.786Z,100310.75
2022-07-27T04:25:07.024Z,100304.44
2022-07-27T04:25:56.594Z,100300.91
2022-07-27T04:26:44.213Z,100304.44
2022-07-27T04:27:34.464Z,100296.25
2022-07-27T04:28:22.983Z,100301.72
2022-07-27T04:29:07.461Z,100305.56
2022-07-27T04:29:54.737Z,100308.00
2022-07-27T04:30:43.280Z,100309.94
2022-07-27T04:31:30.103Z,100313.47
2022-07-27T04:32:19.754Z,100309.09
2022-07-27T04:33:06.831Z,100309.94
2022-07-27T04:33:53.825Z,100316.22
2022-07-27T04:34:40.755Z,100310.75
2022-07-27T04:35:29.251Z,100303.63
2022-07-27T04:36:16.096Z,100311.03
2022-07-27T04:37:03.100Z,100311.84
2022-07-27T04:37:59.231Z,100311.84
2022-07-27T04:38:43.986Z,100304.75
2022-07-27T04:39:26.004Z,100309.09
2022-07-27T04:40:13.598Z,100305.56
2022-07-27T04:40:59.615Z,100309.09
2022-07-27T04:41:47.984Z,100306.66
2022-07-27T04:42:33.952Z,100310.22
2022-07-27T04:43:18.972Z,100310.22
2022-07-27T04:44:06.134Z,100312.97
2022-07-27T04:44:50.552Z,100306.66
2022-07-27T04:45:34.624Z,100314.88
2022-07-27T04:46:21.489Z,100319.25
2022-07-27T04:47:07.848Z,100312.13
2022-07-27T04:47:53.226Z,100312.13
2022-07-27T04:48:49.434Z,100317.63
2022-07-27T04:49:34.469Z,100320.34
2022-07-27T04:50:18.250Z,100314.06
2022-07-27T04:51:04.962Z,100319.25
2022-07-27T04:51:55.331Z,100315.69
2022-07-27T04:52:39.843Z,100314.88
2022-07-27T04:53:25.572Z,100319.53
2022-07-27T04:54:14.345Z,100322.28
2022-07-27T04:54:59.479Z,100327.75
2022-07-27T04:55:44.381Z,100320.34
2022-07-27T04:56:29.908Z,100323.09
2022-07-27T04:57:16.023Z,100316.81
2022-07-27T04:58:02.805Z,100323.09
2022-07-27T04:58:54.511Z,100319.53
2022-07-27T04:59:41.229Z,100323.09
2022-07-27T05:00:28.556Z,100321.16
2022-07-27T05:01:10.907Z,100318.72
2022-07-27T05:01:57.245Z,100323.91
2022-07-27T05:02:46.426Z,100321.47
2022-07-27T05:03:34.939Z,100321.47
2022-07-27T05:04:21.938Z,100324.19
2022-07-27T05:05:08.710Z,100322.28
2022-07-27T05:05:56.350Z,100321.47
2022-07-27T05:06:44.185Z,100324.19
2022-07-27T05:07:31.093Z,100321.47
2022-07-27T05:08:18.484Z,100319.53
2022-07-27T05:09:05.280Z,100326.94
2022-07-27T05:09:47.901Z,100324.19
2022-07-27T05:10:37.451Z,100322.28
2022-07-27T05:11:23.586Z,100327.75
2022-07-27T05:12:14.353Z,100333.22
2022-07-27T05:13:00.809Z,100340.31
2022-07-27T05:13:50.867Z,100331.31
2022-07-27T05:14:41.028Z,100337.88
2022-07-27T05:15:26.892Z,100338.69
2022-07-27T05:16:14.175Z,100341.44
2022-07-27T05:16:59.116Z,100346.09
2022-07-27T05:17:44.500Z,100342.53
2022-07-27T05:18:33.982Z,100343.34
2022-07-27T05:19:19.917Z,100343.34
2022-07-27T05:20:07.438Z,100343.34
2022-07-27T05:20:50.829Z,100344.97
2022-07-27T05:21:36.199Z,100342.53
2022-07-27T05:22:23.125Z,100342.53
2022-07-27T05:23:11.214Z,100347.19
2022-07-27T05:23:57.946Z,100342.53
2022-07-27T05:24:49.498Z,100341.72
2022-07-27T05:25:36.180Z,100345.28
2022-07-27T05:26:23.231Z,100344.16
2022-07-27T05:27:10.586Z,100341.72
2022-07-27T05:27:58.996Z,100348.81
2022-07-27T05:28:45.189Z,100343.34
2022-07-27T05:29:36.243Z,100343.34
2022-07-27T05:30:23.473Z,100349.94
2022-07-27T05:31:10.682Z,100348.81
2022-07-27T05:31:56.287Z,100342.53
2022-07-27T05:32:43.588Z,100348.00
2022-07-27T05:33:32.780Z,100343.34
2022-07-27T05:34:22.424Z,100340.63
2022-07-27T05:35:09.498Z,100351.84
2022-07-27T05:35:58.185Z,100341.72
2022-07-27T05:36:45.016Z,100351.84
2022-07-27T05:37:34.534Z,100349.94
2022-07-27T05:38:24.718Z,100353.47
2022-07-27T05:39:13.808Z,100347.19
2022-07-27T05:39:57.106Z,100342.53
2022-07-27T05:40:44.839Z,100346.38
2022-07-27T05:41:32.954Z,100349.94
2022-07-27T05:42:18.622Z,100349.13
2022-07-27T05:43:04.199Z,100349.13
2022-07-27T05:43:49.285Z,100348.31
2022-07-27T05:44:35.019Z,100351.84
2022-07-27T05:45:19.154Z,100349.94
2022-07-27T05:46:06.020Z,100345.56
2022-07-27T05:46:52.446Z,100351.84
2022-07-27T05:47:40.807Z,100353.78
2022-07-27T05:48:34.293Z,100349.13
2022-07-27T05:49:20.406Z,100358.44
2022-07-27T05:50:07.699Z,100356.50
2022-07-27T05:50:51.986Z,100360.06
2022-07-27T05:51:38.783Z,100357.63
2022-07-27T05:52:23.395Z,100354.59
2022-07-27T05:53:10.397Z,100353.78
2022-07-27T05:53:59.716Z,100353.78
2022-07-27T05:54:49.639Z,100360.06
2022-07-27T05:55:36.170Z,100362.81
2022-07-27T05:56:23.183Z,100362.81
2022-07-27T05:57:10.019Z,100367.47
2022-07-27T05:57:54.259Z,100366.66
2022-07-27T05:58:41.765Z,100366.34
2022-07-27T05:59:28.665Z,100362.81
2022-07-27T06:00:20.044Z,100361.16
2022-07-27T06:01:04.596Z,100368.28
2022-07-27T06:01:51.054Z,100365.53
2022-07-27T06:02:36.548Z,100377.59
2022-07-27T06:03:22.748Z,100368.56
2022-07-27T06:04:10.718Z,100363.09
2022-07-27T06:05:00.346Z,100363.09
2022-07-27T06:05:50.126Z,100369.38
2022-07-27T06:06:36.021Z,100367.75
2022-07-27T06:07:23.810Z,100368.28
2022-07-27T06:08:10.301Z,100365.84
2022-07-27T06:09:00.406Z,100367.47
2022-07-27T06:09:51.702Z,100367.47
2022-07-27T06:10:41.576Z,100367.47
2022-07-27T06:11:28.110Z,100360.06
2022-07-27T06:12:19.543Z,100362.00
2022-07-27T06:13:05.918Z,100364.72
2022-07-27T06:13:55.360Z,100363.09
2022-07-27T06:14:45.597Z,100365.53
2022-07-27T06:15:36.647Z,100367.47
2022-07-27T06:16:23.249Z,100367.47
2022-07-27T06:17:13.276Z,100359.25
2022-07-27T06:17:59.225Z,100370.19
2022-07-27T06:20:44.580Z,100369.09
2022-07-27T06:21:26.623Z,100369.09
2022-07-27T06:23:10.763Z,100374.56
2022-07-27T06:24:59.579Z,100378.13
2022-07-27T06:26:09.323Z,100374.56
2022-07-27T06:26:59.776Z,100381.97
2022-07-27T06:28:10.252Z,100380.03
2022-07-27T06:29:00.041Z,100381.13
2022-07-27T06:29:47.318Z,100375.66
2022-07-27T06:30:32.311Z,100384.69
2022-07-27T06:31:23.076Z,100374.84
2022-07-27T06:32:06.550Z,100372.94
2022-07-27T06:37:23.271Z,100380.31
2022-07-27T06:38:10.900Z,100382.78
2022-07-27T06:39:11.349Z,100381.97
2022-07-27T06:39:58.244Z,100377.59
2022-07-27T06:41:03.326Z,100377.59
2022-07-27T06:41:54.870Z,100384.69
2022-07-27T06:42:41.562Z,100389.34
2022-07-27T06:43:30.700Z,100386.63
2022-07-27T06:44:19.128Z,100385.00
2022-07-27T06:45:05.350Z,100386.63
2022-07-27T06:45:51.291Z,100381.13
2022-07-27T06:46:37.675Z,100381.13
2022-07-27T06:47:28.474Z,100384.69
2022-07-27T06:48:12.663Z,100381.97
2022-07-27T06:48:57.771Z,100376.47
2022-07-27T06:49:43.742Z,100382.25
2022-07-27T06:50:28.013Z,100383.06
2022-07-27T06:51:14.127Z,100378.41
2022-07-27T06:52:09.303Z,100380.31
2022-07-27T06:52:54.801Z,100389.34
2022-07-27T06:53:43.612Z,100386.63
2022-07-27T06:54:31.485Z,100383.88
2022-07-27T06:55:20.685Z,100384.69
2022-07-27T06:56:07.733Z,100385.50
2022-07-27T06:56:56.412Z,100383.88
2022-07-27T06:57:39.338Z,100377.31
2022-07-27T06:58:23.598Z,100386.63
2022-07-27T06:59:10.147Z,100385.50
2022-07-27T06:59:59.192Z,100385.50
2022-07-27T07:00:48.016Z,100382.78
2022-07-27T07:01:35.552Z,100380.84
2022-07-27T07:02:23.498Z,100380.84
2022-07-27T07:03:07.245Z,100384.69
2022-07-27T07:03:59.514Z,100391.78
2022-07-27T07:04:45.278Z,100387.13
2022-07-27T07:05:38.464Z,100385.50
2022-07-27T07:06:26.121Z,100384.69
2022-07-27T07:07:12.662Z,100387.13
2022-07-27T07:08:02.580Z,100391.78
2022-07-27T07:08:53.245Z,100392.09
2022-07-27T07:09:41.550Z,100389.06
2022-07-27T07:10:25.399Z,100390.97
2022-07-27T07:11:17.240Z,100391.78
2022-07-27T07:12:05.313Z,100394.53
2022-07-27T07:12:54.396Z,100388.25
2022-07-27T07:13:43.219Z,100385.50
2022-07-27T07:14:31.916Z,100390.16
2022-07-27T07:15:13.876Z,100389.34
2022-07-27T07:16:00.427Z,100392.91
2022-07-27T07:16:46.056Z,100390.16
2022-07-27T07:17:34.083Z,100392.09
2022-07-27T07:18:23.594Z,100386.63
2022-07-27T07:19:12.277Z,100388.53
2022-07-27T07:20:00.711Z,100390.16
2022-07-27T07:20:46.841Z,100397.56
2022-07-27T07:21:34.323Z,100390.16
2022-07-27T07:22:21.275Z,100388.53
2022-07-27T07:23:12.794Z,100390.16
2022-07-27T07:24:00.514Z,100388.53
2022-07-27T07:24:49.273Z,100391.28
2022-07-27T07:25:38.626Z,100393.19
2022-07-27T07:26:25.479Z,100393.72
2022-07-27T07:27:09.981Z,100389.34
2022-07-27T07:27:57.945Z,100395.63
2022-07-27T07:28:47.035Z,100389.34
2022-07-27T07:29:36.153Z,100388.25
2022-07-27T07:30:23.593Z,100390.16
2022-07-27T07:31:21.711Z,100393.72
2022-07-27T07:32:11.092Z,100393.72
2022-07-27T07:32:55.200Z,100393.72
2022-07-27T07:33:43.249Z,100397.56
2022-07-27T07:34:27.875Z,100401.13
2022-07-27T07:35:18.983Z,100391.78
2022-07-27T07:36:12.199Z,100401.94
2022-07-27T07:37:01.189Z,100394.53
2022-07-27T07:38:46.086Z,100395.63
2022-07-27T07:39:48.809Z,100392.63
2022-07-27T07:41:56.793Z,100390.97
2022-07-27T07:43:03.086Z,100391.78
2022-07-27T07:44:23.383Z,100385.50
2022-07-27T07:46:09.237Z,100393.72
2022-07-27T07:47:03.712Z,100392.91
2022-07-27T07:48:09.559Z,100392.09
2022-07-27T07:49:10.853Z,100393.72
2022-07-27T07:50:07.652Z,100390.97
2022-07-27T07:51:05.642Z,100393.72
2022-07-27T07:52:39.261Z,100390.97
2022-07-27T07:53:49.623Z,100390.97
2022-07-27T07:54:50.832Z,100384.69
2022-07-27T07:56:00.504Z,100389.06
2022-07-27T07:57:46.350Z,100390.97
2022-07-27T07:58:41.342Z,100390.97
2022-07-27T07:59:34.071Z,100384.69
2022-07-27T08:00:27.168Z,100398.09
2022-07-27T08:02:39.254Z,100385.50
2022-07-27T08:03:54.840Z,100399.19
2022-07-27T08:06:01.049Z,100392.91
2022-07-27T08:06:59.301Z,100393.72
2022-07-27T08:07:53.975Z,100388.25
2022-07-27T08:10:44.680Z,100390.97
2022-07-27T08:11:43.069Z,100392.09
2022-07-27T08:12:30.482Z,100389.34
2022-07-27T08:14:18.520Z,100394.81
2022-07-27T08:15:13.060Z,100395.63
2022-07-27T08:16:11.920Z,100404.66
2022-07-27T08:16:59.418Z,100401.13
2022-07-27T08:17:46.931Z,100401.94
2022-07-27T08:18:29.999Z,100395.63
2022-07-27T08:19:16.153Z,100397.28
2022-07-27T08:20:02.821Z,100396.44
2022-07-27T08:20:54.050Z,100401.94
2022-07-27T08:22:53.130Z,100394.53
2022-07-27T08:23:54.513Z,100395.63
2022-07-27T08:25:41.719Z,100401.94
2022-07-27T08:26:32.943Z,100401.94
2022-07-27T08:28:35.656Z,100394.81
2022-07-27T08:29:36.551Z,100394.81
2022-07-27T08:30:28.591Z,100394.53
2022-07-27T08:31:26.606Z,100396.44
2022-07-27T08:32:29.392Z,100392.09
2022-07-27T08:33:20.730Z,100389.34
2022-07-27T08:34:14.673Z,100392.38
2022-07-27T08:34:59.072Z,100388.53
2022-07-27T08:35:46.162Z,100388.53
2022-07-27T08:36:35.573Z,100384.69
2022-07-27T08:37:25.419Z,100391.28
2022-07-27T08:38:17.556Z,100398.66
2022-07-27T08:39:01.195Z,100389.34
2022-07-27T08:40:46.742Z,100392.91
2022-07-27T08:41:31.237Z,100393.72
2022-07-27T08:42:14.383Z,100395.63
2022-07-27T08:43:01.812Z,100396.44
2022-07-27T08:44:11.407Z,100393.72
2022-07-27T08:44:59.477Z,100386.63
2022-07-27T08:45:44.538Z,100394.81
2022-07-27T08:46:33.522Z,100397.28
2022-07-27T08:47:19.901Z,100386.31
2022-07-27T08:48:05.049Z,100387.44
2022-07-27T08:49:09.285Z,100396.44
2022-07-27T08:49:59.524Z,100398.91
2022-07-27T08:51:00.981Z,100397.28
2022-07-27T08:51:53.443Z,100395.34
2022-07-27T08:52:42.049Z,100395.34
2022-07-27T08:53:54.132Z,100391.78
2022-07-27T08:54:35.778Z,100391.50
2022-07-27T08:55:17.279Z,100395.34
2022-07-27T08:56:04.394Z,100398.09
2022-07-27T08:56:53.500Z,100395.34
2022-07-27T08:57:40.366Z,100390.69
2022-07-27T09:01:51.966Z,100398.91
2022-07-27T09:02:46.149Z,100398.09
2022-07-27T09:07:06.313Z,100403.84
2022-07-27T09:08:02.070Z,100389.34
2022-07-27T09:09:08.315Z,100401.13
2022-07-27T09:11:11.218Z,100400.31
2022-07-27T09:11:58.863Z,100398.66
2022-07-27T09:22:32.596Z,100400.38
2022-07-27T09:23:48.577Z,100397.63
2022-07-27T09:24:47.060Z,100398.44
2022-07-27T09:25:52.600Z,100400.38
2022-07-27T09:26:32.335Z,100402.00
2022-07-27T09:27:21.564Z,100394.59
2022-07-27T09:28:05.299Z,100395.69
2022-07-27T09:28:48.357Z,100394.59
2022-07-27T09:29:25.757Z,100394.59
2022-07-27T09:30:06.390Z,100400.88
2022-07-27T09:30:50.126Z,100402.81
2022-07-27T09:31:32.531Z,100399.78
2022-07-27T09:32:13.495Z,100400.88
2022-07-27T09:32:57.417Z,100404.44
2022-07-27T09:33:45.659Z,100408.00
2022-07-27T09:34:28.888Z,100406.06
2022-07-27T09:35:12.683Z,100401.69